createdAt,value
2022-11-29T00:01:28.668Z,85.60
2022-11-29T00:03:55.742Z,65.30
2022-11-29T00:06:24.663Z,70.55
2022-11-29T00:08:50.962Z,75.38
2022-11-29T00:11:48.090Z,74.40
2022-11-29T00:14:16.848Z,78.35
2022-11-29T00:16:43.798Z,87.53
2022-11-29T00:19:12.394Z,66.15
2022-11-29T00:21:38.904Z,75.22
2022-11-29T00:24:05.655Z,79.43
2022-11-29T00:26:32.079Z,69.53
2022-11-29T00:28:58.519Z,77.53
2022-11-29T00:31:30.218Z,67.28
2022-11-29T00:33:57.819Z,65.60
2022-11-29T00:36:24.808Z,71.13
2022-11-29T00:38:51.286Z,71.70
2022-11-29T00:41:17.658Z,80.20
2022-11-29T00:43:44.243Z,79.93
2022-11-29T00:46:11.697Z,71.88
2022-11-29T00:48:38.668Z,72.20
2022-11-29T00:51:06.138Z,96.90
2022-11-29T00:53:34.287Z,86.23
2022-11-29T00:56:00.878Z,75.53
2022-11-29T00:58:28.142Z,75.70
2022-11-29T01:00:55.081Z,69.93
2022-11-29T01:03:22.570Z,67.53
2022-11-29T01:05:49.383Z,68.03
2022-11-29T01:08:16.264Z,62.47
2022-11-29T01:10:42.769Z,74.35
2022-11-29T01:13:10.647Z,61.47
2022-11-29T01:15:37.436Z,58.33
2022-11-29T01:18:04.004Z,65.77
2022-11-29T01:20:30.330Z,50.33
2022-11-29T01:22:56.712Z,60.08
2022-11-29T01:25:23.026Z,57.92
2022-11-29T01:27:49.384Z,64.82
2022-11-29T01:30:15.899Z,70.60
2022-11-29T01:32:42.399Z,55.58
2022-11-29T01:35:09.026Z,69.38
2022-11-29T01:37:35.497Z,60.25
2022-11-29T01:40:01.846Z,66.97
2022-11-29T01:42:28.230Z,55.97
2022-11-29T01:45:05.290Z,61.45
2022-11-29T01:47:32.214Z,67.22
2022-11-29T01:49:59.761Z,57.92
2022-11-29T01:52:30.989Z,60.25
2022-11-29T01:55:01.604Z,56.07
2022-11-29T01:57:29.280Z,56.03
2022-11-29T02:00:00.785Z,56.72
2022-11-29T02:02:33.167Z,54.10
2022-11-29T02:05:01.023Z,57.75
2022-11-29T02:07:27.446Z,54.33
2022-11-29T02:09:54.006Z,47.55
2022-11-29T02:12:38.316Z,51.17
2022-11-29T02:15:35.290Z,50.50
2022-11-29T02:18:32.150Z,55.75
2022-11-29T02:21:46.215Z,51.43
2022-11-29T02:24:38.640Z,48.45
2022-11-29T02:27:31.499Z,49.20
2022-11-29T02:30:12.903Z,46.03
2022-11-29T02:33:08.454Z,47.58
2022-11-29T02:36:02.386Z,50.90
2022-11-29T02:38:50.118Z,51.45
2022-11-29T02:41:35.222Z,50.00
2022-11-29T02:44:23.406Z,50.38
2022-11-29T02:47:01.879Z,43.92
2022-11-29T02:49:56.022Z,46.73
2022-11-29T02:52:37.735Z,45.60
2022-11-29T02:55:19.855Z,43.03
2022-11-29T02:57:59.983Z,42.60
2022-11-29T03:00:26.638Z,63.40
2022-11-29T03:03:14.151Z,48.77
2022-11-29T03:06:04.957Z,50.45
2022-11-29T03:08:40.632Z,47.92
2022-11-29T03:11:28.144Z,48.38
2022-11-29T03:14:30.922Z,49.08
2022-11-29T03:17:25.762Z,59.07
2022-11-29T03:20:17.425Z,54.30
2022-11-29T03:22:58.418Z,67.50
2022-11-29T03:25:43.260Z,84.78
2022-11-29T03:28:19.287Z,82.15
2022-11-29T03:31:06.789Z,53.87
2022-11-29T03:33:45.706Z,60.53
2022-11-29T03:36:17.643Z,95.20
2022-11-29T03:38:47.040Z,53.13
2022-11-29T03:41:30.086Z,56.22
2022-11-29T03:44:07.890Z,56.03
2022-11-29T03:46:52.818Z,49.53
2022-11-29T03:49:43.531Z,89.63
2022-11-29T03:52:23.907Z,64.30
2022-11-29T03:55:08.426Z,57.17
2022-11-29T03:57:48.807Z,62.50
2022-11-29T04:00:16.901Z,52.47
2022-11-29T04:03:11.474Z,62.13
2022-11-29T04:06:03.903Z,42.00
2022-11-29T04:08:49.706Z,60.72
2022-11-29T04:11:34.857Z,59.67
2022-11-29T04:14:16.439Z,43.67
2022-11-29T04:17:20.525Z,45.45
2022-11-29T04:20:39.069Z,53.58
2022-11-29T04:23:43.269Z,57.90
2022-11-29T04:26:24.752Z,62.60
2022-11-29T04:29:36.827Z,70.63
2022-11-29T04:32:41.577Z,67.00
2022-11-29T04:35:35.290Z,70.75
2022-11-29T04:38:38.783Z,67.75
2022-11-29T04:41:34.479Z,100.90
2022-11-29T04:44:34.876Z,56.40
2022-11-29T04:47:04.224Z,75.80
2022-11-29T04:49:36.695Z,46.53
2022-11-29T04:52:32.374Z,77.32
2022-11-29T04:55:29.411Z,44.20
2022-11-29T04:58:15.538Z,61.95
2022-11-29T05:01:06.739Z,57.67
2022-11-29T05:03:44.887Z,53.97
2022-11-29T05:06:19.165Z,63.45
2022-11-29T05:09:03.216Z,32.53
2022-11-29T05:11:35.696Z,39.42
2022-11-29T05:14:16.691Z,38.40
2022-11-29T05:17:01.084Z,51.65
2022-11-29T05:19:55.434Z,50.47
2022-11-29T05:22:50.938Z,39.17
2022-11-29T05:25:39.648Z,44.25
2022-11-29T05:28:15.010Z,41.40
2022-11-29T05:31:06.535Z,44.08
2022-11-29T05:33:53.727Z,38.40
2022-11-29T05:36:27.966Z,42.17
2022-11-29T05:39:22.024Z,42.13
2022-11-29T05:42:10.831Z,41.13
2022-11-29T05:44:50.188Z,36.95
2022-11-29T05:47:28.240Z,40.65
2022-11-29T05:50:12.141Z,57.37
2022-11-29T05:52:57.421Z,48.78
2022-11-29T05:55:42.716Z,44.47
2022-11-29T05:58:24.446Z,51.08
2022-11-29T06:01:18.283Z,42.47
2022-11-29T06:04:04.300Z,52.97
2022-11-29T06:06:40.764Z,40.60
2022-11-29T06:09:14.319Z,48.35
2022-11-29T06:12:02.312Z,43.47
2022-11-29T06:14:47.917Z,32.33
2022-11-29T06:17:34.241Z,40.20
2022-11-29T06:20:15.265Z,34.70
2022-11-29T06:23:02.827Z,39.97
2022-11-29T06:26:03.514Z,42.08
2022-11-29T06:28:57.523Z,42.13
2022-11-29T06:31:30.840Z,40.63
2022-11-29T06:34:09.295Z,32.92
2022-11-29T06:36:48.158Z,36.78
2022-11-29T06:39:14.895Z,36.90
2022-11-29T06:41:41.270Z,34.20
2022-11-29T06:44:08.534Z,32.97
2022-11-29T06:46:51.551Z,37.63
2022-11-29T06:49:25.106Z,41.85
2022-11-29T06:52:00.467Z,32.63
2022-11-29T06:54:36.085Z,31.50
2022-11-29T06:57:16.989Z,27.27
2022-11-29T07:00:01.741Z,37.58
2022-11-29T07:02:35.133Z,37.90
2022-11-29T07:05:20.379Z,34.58
2022-11-29T07:07:48.439Z,46.92
2022-11-29T07:10:17.565Z,39.77
2022-11-29T07:12:45.980Z,41.95
2022-11-29T07:15:17.850Z,40.97
2022-11-29T07:17:57.798Z,44.67
2022-11-29T07:20:36.886Z,39.58
2022-11-29T07:23:13.290Z,32.13
2022-11-29T07:26:17.267Z,31.10
2022-11-29T07:28:55.868Z,27.33
2022-11-29T07:31:30.031Z,38.05
2022-11-29T07:34:10.125Z,33.40
2022-11-29T07:36:44.993Z,38.87
2022-11-29T07:39:23.535Z,32.83
2022-11-29T07:42:25.314Z,28.67
2022-11-29T07:45:02.764Z,33.10
2022-11-29T07:47:34.065Z,36.22
2022-11-29T07:50:01.960Z,34.17
2022-11-29T07:52:28.638Z,24.70
2022-11-29T07:54:55.715Z,36.05
2022-11-29T07:57:22.645Z,32.85
2022-11-29T07:59:48.985Z,28.92
2022-11-29T08:02:25.598Z,34.17
2022-11-29T08:04:52.017Z,27.77
2022-11-29T08:07:18.401Z,34.20
2022-11-29T08:09:44.937Z,23.40
2022-11-29T08:12:11.515Z,25.92
2022-11-29T08:14:37.884Z,26.43
2022-11-29T08:17:04.914Z,22.80
2022-11-29T08:19:31.238Z,25.55
2022-11-29T08:21:57.614Z,24.20
2022-11-29T08:24:24.032Z,27.35
2022-11-29T08:26:50.399Z,24.17
2022-11-29T08:29:17.022Z,23.17
2022-11-29T08:31:43.798Z,23.08
2022-11-29T08:34:10.651Z,22.98
2022-11-29T08:36:37.929Z,23.98
2022-11-29T08:39:09.378Z,20.30
2022-11-29T08:41:36.284Z,23.63
2022-11-29T08:44:04.148Z,23.42
2022-11-29T08:46:50.491Z,20.50
2022-11-29T08:49:16.894Z,27.38
2022-11-29T08:51:43.268Z,21.03
2022-11-29T08:54:09.853Z,21.10
2022-11-29T08:59:23.863Z,22.38
2022-11-29T09:01:50.198Z,21.23
2022-11-29T09:04:17.092Z,19.57
2022-11-29T09:06:44.394Z,19.55
2022-11-29T09:09:10.719Z,17.83
2022-11-29T09:11:37.089Z,21.92
2022-11-29T09:14:06.197Z,21.65
2022-11-29T09:16:34.853Z,20.27
2022-11-29T09:19:01.413Z,23.58
2022-11-29T09:21:30.083Z,18.02
2022-11-29T09:23:59.951Z,22.40
2022-11-29T09:26:29.245Z,18.05
2022-11-29T09:28:57.870Z,20.97
2022-11-29T09:31:24.474Z,20.92
2022-11-29T09:33:50.959Z,21.23
2022-11-29T09:36:17.310Z,23.58
2022-11-29T09:38:43.627Z,26.35
2022-11-29T09:41:16.124Z,20.53
2022-11-29T09:43:48.527Z,22.25
2022-11-29T09:46:23.434Z,17.60
2022-11-29T09:48:55.762Z,23.95
2022-11-29T09:51:45.525Z,18.52
2022-11-29T09:54:31.151Z,16.03
2022-11-29T09:56:57.768Z,15.63
2022-11-29T09:59:42.894Z,20.33
2022-11-29T10:02:20.864Z,19.20
2022-11-29T10:04:57.844Z,18.08
2022-11-29T10:07:33.635Z,16.10
2022-11-29T10:10:22.663Z,15.15
2022-11-29T10:12:55.037Z,19.98
2022-11-29T10:15:27.838Z,17.30
2022-11-29T10:18:17.449Z,18.30
2022-11-29T10:20:49.365Z,15.20
2022-11-29T10:23:36.700Z,18.13
2022-11-29T10:26:07.846Z,15.73
2022-11-29T10:28:36.563Z,21.98
2022-11-29T10:31:20.952Z,15.95
2022-11-29T10:33:48.727Z,14.47
2022-11-29T10:36:40.483Z,15.25
2022-11-29T10:39:15.907Z,15.30
2022-11-29T10:41:42.579Z,15.52
2022-11-29T10:44:14.626Z,16.58
2022-11-29T10:46:41.350Z,17.67
2022-11-29T10:49:14.010Z,20.13
2022-11-29T10:51:40.389Z,15.30
2022-11-29T10:54:21.923Z,11.73
2022-11-29T10:56:48.460Z,16.30
2022-11-29T10:59:27.426Z,15.77
2022-11-29T11:01:54.635Z,19.05
2022-11-29T11:04:26.955Z,15.95
2022-11-29T11:06:56.716Z,17.95
2022-11-29T11:09:40.318Z,25.10
2022-11-29T11:12:18.763Z,14.70
2022-11-29T11:14:47.000Z,16.20
2022-11-29T11:17:28.048Z,20.85
2022-11-29T11:20:08.743Z,17.42
2022-11-29T11:22:39.829Z,14.95
2022-11-29T11:25:24.337Z,14.13
2022-11-29T11:27:51.027Z,20.65
2022-11-29T11:30:23.210Z,17.50
2022-11-29T11:33:19.085Z,16.88
2022-11-29T11:36:01.632Z,21.13
2022-11-29T11:38:28.234Z,18.77
2022-11-29T11:41:03.948Z,21.70
2022-11-29T11:43:31.587Z,15.75
2022-11-29T11:45:58.314Z,19.75
2022-11-29T11:48:24.910Z,17.73
2022-11-29T11:50:52.818Z,13.60
2022-11-29T11:53:23.609Z,16.02
2022-11-29T11:56:16.350Z,16.98
2022-11-29T11:58:51.367Z,16.63
2022-11-29T12:01:30.593Z,18.67
2022-11-29T12:04:25.107Z,17.07
2022-11-29T12:07:00.532Z,18.33
2022-11-29T12:09:51.384Z,17.30
2022-11-29T12:12:20.602Z,17.13
2022-11-29T12:15:01.199Z,17.52
2022-11-29T12:18:05.030Z,17.43
2022-11-29T12:20:44.218Z,15.65
2022-11-29T12:23:13.779Z,18.50
2022-11-29T12:25:47.249Z,24.95
2022-11-29T12:28:20.290Z,24.98
2022-11-29T12:30:59.708Z,17.03
2022-11-29T12:33:36.850Z,18.83
2022-11-29T12:36:11.406Z,18.15
2022-11-29T12:38:53.160Z,16.80
2022-11-29T12:41:29.324Z,21.67
2022-11-29T12:43:58.440Z,17.40
2022-11-29T12:46:27.648Z,16.08
2022-11-29T12:49:22.031Z,14.88
2022-11-29T12:51:57.624Z,21.13
2022-11-29T12:54:30.097Z,16.75
2022-11-29T12:56:59.487Z,19.17
2022-11-29T12:59:57.766Z,16.65
2022-11-29T13:02:40.960Z,21.00
2022-11-29T13:05:18.997Z,18.77
2022-11-29T13:08:03.935Z,17.38
2022-11-29T13:10:36.459Z,18.87
2022-11-29T13:13:15.622Z,20.15
2022-11-29T13:15:50.593Z,14.80
2022-11-29T13:18:28.736Z,18.88
2022-11-29T13:21:02.065Z,21.27
2022-11-29T13:24:11.928Z,19.33
2022-11-29T13:26:41.959Z,15.65
2022-11-29T13:29:14.707Z,18.55
2022-11-29T13:31:41.969Z,20.42
2022-11-29T13:34:16.436Z,17.02
2022-11-29T13:37:12.727Z,20.00
2022-11-29T13:39:58.550Z,18.42
2022-11-29T13:42:51.290Z,17.58
2022-11-29T13:45:17.665Z,17.77
2022-11-29T13:47:52.333Z,14.60
2022-11-29T13:50:43.756Z,15.77
2022-11-29T13:53:25.688Z,19.10
2022-11-29T13:56:01.749Z,17.45
2022-11-29T13:58:28.092Z,12.93
2022-11-29T14:01:02.115Z,13.30
2022-11-29T14:03:35.886Z,18.77
2022-11-29T14:06:02.178Z,14.85
2022-11-29T14:08:48.036Z,14.32
2022-11-29T14:11:31.857Z,14.40
2022-11-29T14:14:07.443Z,16.05
2022-11-29T14:16:49.051Z,15.17
2022-11-29T14:19:18.287Z,14.25
2022-11-29T14:22:03.030Z,16.48
2022-11-29T14:24:32.573Z,14.32
2022-11-29T14:27:12.500Z,15.00
2022-11-29T14:29:48.577Z,11.77
2022-11-29T14:32:45.747Z,12.18
2022-11-29T14:35:12.667Z,19.25
2022-11-29T14:38:00.095Z,14.20
2022-11-29T14:40:33.838Z,13.30
2022-11-29T14:43:02.269Z,14.13
2022-11-29T14:45:30.571Z,13.68
2022-11-29T14:47:57.897Z,14.80
2022-11-29T14:50:37.254Z,13.40
2022-11-29T14:53:06.424Z,16.40
2022-11-29T14:55:36.531Z,17.60
2022-11-29T14:58:06.085Z,16.33
2022-11-29T15:00:32.653Z,17.80
2022-11-29T15:03:08.067Z,11.85
2022-11-29T15:05:37.989Z,16.98
2022-11-29T15:08:16.493Z,16.73
2022-11-29T15:10:49.483Z,12.68
2022-11-29T15:13:23.969Z,13.75
2022-11-29T15:15:58.456Z,14.77
2022-11-29T15:18:36.297Z,13.60
2022-11-29T15:21:13.561Z,15.77
2022-11-29T15:23:42.510Z,15.48
2022-11-29T15:26:17.940Z,10.65
2022-11-29T15:28:44.764Z,13.23
2022-11-29T15:31:14.818Z,18.13
2022-11-29T15:33:43.483Z,13.70
2022-11-29T15:36:21.747Z,14.57
2022-11-29T15:38:53.600Z,13.88
2022-11-29T15:41:31.263Z,11.77
2022-11-29T15:44:00.249Z,11.45
2022-11-29T15:46:29.212Z,15.10
2022-11-29T15:48:56.256Z,17.13
2022-11-29T15:51:34.496Z,13.45
2022-11-29T15:54:13.069Z,10.75
2022-11-29T15:56:54.757Z,12.18
2022-11-29T15:59:24.312Z,12.00
2022-11-29T16:01:54.717Z,8.00
2022-11-29T16:04:24.373Z,9.27
2022-11-29T16:06:51.820Z,8.63
2022-11-29T16:09:23.185Z,7.13
2022-11-29T16:11:49.754Z,10.37
2022-11-29T16:14:25.793Z,10.82
2022-11-29T16:16:55.012Z,11.70
2022-11-29T16:19:29.126Z,13.25
2022-11-29T16:22:11.825Z,15.35
2022-11-29T16:24:50.641Z,12.23
2022-11-29T16:27:19.369Z,14.90
2022-11-29T16:29:47.262Z,11.60
2022-11-29T16:32:36.659Z,15.07
2022-11-29T16:35:21.947Z,17.98
2022-11-29T16:37:48.876Z,17.50
2022-11-29T16:40:29.112Z,17.05
2022-11-29T16:43:04.751Z,18.10
2022-11-29T16:45:39.528Z,19.65
2022-11-29T16:48:21.094Z,20.77
2022-11-29T16:51:10.243Z,15.50
2022-11-29T16:53:44.056Z,20.35
2022-11-29T16:56:12.467Z,20.40
2022-11-29T16:59:17.097Z,18.10
2022-11-29T17:01:31.408Z,18.02
2022-11-29T17:03:59.942Z,17.27
2022-11-29T17:06:27.848Z,17.02
2022-11-29T17:08:56.582Z,16.50
2022-11-29T17:11:23.607Z,18.05
2022-11-29T17:13:50.897Z,17.58
2022-11-29T17:16:19.751Z,21.90
2022-11-29T17:18:46.303Z,14.43
2022-11-29T17:21:21.194Z,20.08
2022-11-29T17:23:48.161Z,15.80
2022-11-29T17:26:15.485Z,18.00
2022-11-29T17:28:43.468Z,20.07
2022-11-29T17:31:11.882Z,20.00
2022-11-29T17:33:38.268Z,17.75
2022-11-29T17:36:10.129Z,21.42
2022-11-29T17:38:37.132Z,19.95
2022-11-29T17:41:14.666Z,20.20
2022-11-29T17:43:41.784Z,17.73
2022-11-29T17:46:08.999Z,17.48
2022-11-29T17:48:36.373Z,19.77
2022-11-29T17:51:02.827Z,15.50
2022-11-29T17:53:30.522Z,16.37
2022-11-29T17:56:03.598Z,15.98
2022-11-29T17:58:30.048Z,14.63
2022-11-29T18:01:16.296Z,16.05
2022-11-29T18:03:44.294Z,15.35
2022-11-29T18:06:13.296Z,18.37
2022-11-29T18:08:41.297Z,17.17
2022-11-29T18:11:12.514Z,14.43
2022-11-29T18:13:39.204Z,15.23
2022-11-29T18:16:16.701Z,16.48
2022-11-29T18:18:44.443Z,14.93
2022-11-29T18:21:11.745Z,17.33
2022-11-29T18:23:40.651Z,18.10
2022-11-29T18:26:11.378Z,16.30
2022-11-29T18:28:39.238Z,18.08
2022-11-29T18:31:28.362Z,14.10
2022-11-29T18:33:57.720Z,14.68
2022-11-29T18:36:29.217Z,16.85
2022-11-29T18:38:58.051Z,14.52
2022-11-29T18:41:25.298Z,16.05
2022-11-29T18:44:00.239Z,14.20
2022-11-29T18:46:32.034Z,13.07
2022-11-29T18:49:03.136Z,13.57
2022-11-29T18:51:31.346Z,14.88
2022-11-29T18:53:58.763Z,16.73
2022-11-29T18:56:27.670Z,13.43
2022-11-29T18:59:03.082Z,16.80
2022-11-29T19:01:32.538Z,16.15
2022-11-29T19:04:00.343Z,17.30
2022-11-29T19:06:32.847Z,11.77
2022-11-29T19:09:04.698Z,14.47
2022-11-29T19:11:32.628Z,14.52
2022-11-29T19:14:03.019Z,13.00
2022-11-29T19:16:32.038Z,14.23
2022-11-29T19:18:59.840Z,13.73
2022-11-29T19:21:27.818Z,18.10
2022-11-29T19:23:56.630Z,15.38
2022-11-29T19:26:25.280Z,14.27
2022-11-29T19:28:52.234Z,11.55
2022-11-29T19:31:20.893Z,12.13
2022-11-29T19:33:47.377Z,14.40
2022-11-29T19:36:16.449Z,14.57
2022-11-29T19:38:45.700Z,13.25
2022-11-29T19:41:18.718Z,19.52
2022-11-29T19:43:45.708Z,10.45
2022-11-29T19:46:21.406Z,11.63
2022-11-29T19:48:48.434Z,12.23
2022-11-29T19:51:18.879Z,11.10
2022-11-29T19:53:46.884Z,13.38
2022-11-29T19:56:15.958Z,13.32
2022-11-29T19:58:43.140Z,12.07
2022-11-29T20:01:12.204Z,10.75
2022-11-29T20:03:39.376Z,12.90
2022-11-29T20:06:06.703Z,9.40
2022-11-29T20:08:33.467Z,11.65
2022-11-29T20:11:11.835Z,10.63
2022-11-29T20:13:39.840Z,13.98
2022-11-29T20:16:09.709Z,10.07
2022-11-29T20:18:38.998Z,11.98
2022-11-29T20:21:06.240Z,12.20
2022-11-29T20:23:33.429Z,16.13
2022-11-29T20:26:00.060Z,13.30
2022-11-29T20:28:26.804Z,15.57
2022-11-29T20:30:54.314Z,16.75
2022-11-29T20:33:25.347Z,11.57
2022-11-29T20:36:05.322Z,11.97
2022-11-29T20:38:44.073Z,12.07
2022-11-29T20:41:21.829Z,10.63
2022-11-29T20:43:55.008Z,12.27
2022-11-29T20:46:22.038Z,10.30
2022-11-29T20:48:48.635Z,11.30
2022-11-29T20:51:16.985Z,10.90
2022-11-29T20:53:46.015Z,7.72
2022-11-29T20:56:12.447Z,13.25
2022-11-29T20:58:39.002Z,13.93
2022-11-29T21:01:06.079Z,13.37
2022-11-29T21:03:32.497Z,10.88
2022-11-29T21:06:02.956Z,10.65
2022-11-29T21:08:29.437Z,13.73
2022-11-29T21:11:02.487Z,12.57
2022-11-29T21:13:29.112Z,11.73
2022-11-29T21:15:55.709Z,13.50
2022-11-29T21:18:25.535Z,17.55
2022-11-29T21:21:00.865Z,10.18
2022-11-29T21:23:38.201Z,10.40
2022-11-29T21:26:28.666Z,13.17
2022-11-29T21:29:10.285Z,11.52
2022-11-29T21:31:37.088Z,9.18
2022-11-29T21:34:03.674Z,10.95
2022-11-29T21:36:30.118Z,12.77
2022-11-29T21:38:57.892Z,12.73
2022-11-29T21:41:27.259Z,14.20
2022-11-29T21:44:09.094Z,13.68
2022-11-29T21:46:35.747Z,10.52
2022-11-29T21:49:02.153Z,13.75
2022-11-29T21:51:28.488Z,11.07
2022-11-29T21:53:54.806Z,14.85
2022-11-29T21:56:21.202Z,9.77
2022-11-29T21:58:47.559Z,13.65
2022-11-29T22:01:15.204Z,9.80
2022-11-29T22:03:42.530Z,11.73
2022-11-29T22:06:13.544Z,10.45
2022-11-29T22:08:41.151Z,14.68
2022-11-29T22:11:10.597Z,10.02
2022-11-29T22:13:58.879Z,11.80
2022-11-29T22:16:25.593Z,12.43
2022-11-29T22:18:52.190Z,13.20
2022-11-29T22:21:18.585Z,10.77
2022-11-29T22:23:44.956Z,9.80
2022-11-29T22:26:12.020Z,10.95
2022-11-29T22:28:38.530Z,15.17
2022-11-29T22:31:07.123Z,11.05
2022-11-29T22:33:33.810Z,11.80
2022-11-29T22:36:08.208Z,11.15
2022-11-29T22:38:35.240Z,9.73
2022-11-29T22:41:07.682Z,15.73
2022-11-29T22:43:34.734Z,14.48
2022-11-29T22:46:16.726Z,15.00
2022-11-29T22:48:44.779Z,16.77
2022-11-29T22:51:16.724Z,14.05
2022-11-29T22:53:50.704Z,14.97
2022-11-29T22:56:18.285Z,16.77
2022-11-29T22:58:45.608Z,14.70
2022-11-29T23:01:15.042Z,18.08
2022-11-29T23:03:43.768Z,17.90
2022-11-29T23:06:16.391Z,15.03
2022-11-29T23:08:44.024Z,17.65
2022-11-29T23:11:13.810Z,19.17
2022-11-29T23:13:42.253Z,17.50
2022-11-29T23:16:12.563Z,14.93
2022-11-29T23:18:39.954Z,16.60
2022-11-29T23:21:07.821Z,17.25
2022-11-29T23:23:34.865Z,18.23
2022-11-29T23:26:02.303Z,18.75
2022-11-29T23:28:29.211Z,20.50
2022-11-29T23:30:55.972Z,17.13
2022-11-29T23:33:23.386Z,18.50
2022-11-29T23:35:50.816Z,16.58
2022-11-29T23:38:17.890Z,17.63
2022-11-29T23:40:44.590Z,18.08
2022-11-29T23:43:10.984Z,18.27
2022-11-29T23:45:41.381Z,18.08
2022-11-29T23:48:07.918Z,17.77
2022-11-29T23:50:34.333Z,20.73
2022-11-29T23:53:00.776Z,14.27
2022-11-29T23:55:27.277Z,18.33
2022-11-29T23:57:53.651Z,19.88
